createdAt,value
2018-04-11T00:00:51.397Z,11.90
2018-04-11T00:01:54.606Z,11.90
2018-04-11T00:02:57.823Z,11.80
2018-04-11T00:04:01.061Z,11.80
2018-04-11T00:05:04.290Z,11.70
2018-04-11T00:06:07.517Z,11.70
2018-04-11T00:07:10.765Z,11.70
2018-04-11T00:08:13.988Z,11.70
2018-04-11T00:09:17.213Z,11.70
2018-04-11T00:10:20.605Z,11.70
2018-04-11T00:11:23.800Z,11.70
2018-04-11T00:12:27.019Z,11.70
2018-04-11T00:13:30.275Z,11.70
2018-04-11T00:14:33.539Z,11.60
2018-04-11T00:15:36.765Z,11.70
2018-04-11T00:16:39.977Z,11.50
2018-04-11T00:17:43.247Z,11.60
2018-04-11T00:18:46.464Z,11.60
2018-04-11T00:19:49.791Z,11.60
2018-04-11T00:20:53.010Z,11.60
2018-04-11T00:21:56.249Z,11.60
2018-04-11T00:23:00.244Z,11.60
2018-04-11T00:24:04.239Z,11.50
2018-04-11T00:25:07.503Z,11.50
2018-04-11T00:26:10.749Z,11.50
2018-04-11T00:27:13.982Z,11.50
2018-04-11T00:28:17.208Z,11.50
2018-04-11T00:29:20.450Z,11.50
2018-04-11T00:30:23.686Z,11.40
2018-04-11T00:31:26.915Z,11.50
2018-04-11T00:32:30.908Z,11.50
2018-04-11T00:33:34.136Z,11.50
2018-04-11T00:34:37.347Z,11.50
2018-04-11T00:35:40.585Z,11.60
2018-04-11T00:36:44.572Z,11.50
2018-04-11T00:37:48.563Z,11.50
2018-04-11T00:38:52.560Z,11.50
2018-04-11T00:39:55.791Z,11.50
2018-04-11T00:40:59.010Z,11.40
2018-04-11T00:42:02.228Z,11.50
2018-04-11T00:43:06.225Z,11.40
2018-04-11T00:44:10.245Z,11.50
2018-04-11T00:45:13.485Z,11.50
2018-04-11T00:46:16.710Z,11.50
2018-04-11T00:47:19.940Z,11.40
2018-04-11T00:48:23.176Z,11.40
2018-04-11T00:49:27.259Z,11.30
2018-04-11T00:50:31.235Z,11.30
2018-04-11T00:51:34.495Z,11.30
2018-04-11T00:52:37.722Z,11.30
2018-04-11T00:53:41.707Z,11.40
2018-04-11T00:54:45.078Z,11.40
2018-04-11T00:55:48.318Z,11.40
2018-04-11T00:56:51.550Z,11.30
2018-04-11T00:57:54.798Z,11.20
2018-04-11T00:58:58.017Z,11.10
2018-04-11T01:00:02.535Z,11.10
2018-04-11T01:01:05.758Z,11.20
2018-04-11T01:02:09.005Z,11.30
2018-04-11T01:03:12.224Z,11.30
2018-04-11T01:04:15.460Z,11.10
2018-04-11T01:05:18.681Z,11.10
2018-04-11T01:06:21.903Z,11.10
2018-04-11T01:07:25.145Z,11.20
2018-04-11T01:08:28.358Z,11.20
2018-04-11T01:09:31.590Z,11.20
2018-04-11T01:10:35.585Z,11.20
2018-04-11T01:11:38.822Z,11.30
2018-04-11T01:12:42.033Z,11.30
2018-04-11T01:13:45.273Z,11.30
2018-04-11T01:14:48.491Z,11.20
2018-04-11T01:15:51.750Z,11.10
2018-04-11T01:16:54.977Z,11.00
2018-04-11T01:17:58.189Z,11.00
2018-04-11T01:19:01.447Z,11.10
2018-04-11T01:20:04.629Z,11.00
2018-04-11T01:21:07.868Z,10.90
2018-04-11T01:22:11.092Z,11.00
2018-04-11T01:23:14.315Z,10.80
2018-04-11T01:24:17.558Z,10.80
2018-04-11T01:25:20.780Z,10.80
2018-04-11T01:26:24.012Z,10.80
2018-04-11T01:27:27.249Z,10.80
2018-04-11T01:28:30.519Z,10.80
2018-04-11T01:29:33.746Z,10.90
2018-04-11T01:30:36.991Z,10.90
2018-04-11T01:31:40.235Z,10.90
2018-04-11T01:32:43.448Z,10.90
2018-04-11T01:33:46.708Z,11.00
2018-04-11T01:34:50.699Z,11.00
2018-04-11T01:35:53.918Z,11.00
2018-04-11T01:36:57.137Z,11.00
2018-04-11T01:38:00.384Z,11.10
2018-04-11T01:39:03.598Z,11.20
2018-04-11T01:40:06.806Z,11.20
2018-04-11T01:41:10.031Z,11.10
2018-04-11T01:42:13.254Z,11.00
2018-04-11T01:43:16.507Z,10.90
2018-04-11T01:44:19.726Z,10.90
2018-04-11T01:45:22.960Z,10.90
2018-04-11T01:46:26.185Z,11.00
2018-04-11T01:47:29.399Z,11.10
2018-04-11T01:48:33.425Z,11.00
2018-04-11T01:49:37.408Z,11.00
2018-04-11T01:50:48.910Z,11.00
2018-04-11T01:51:52.137Z,11.00
2018-04-11T01:52:55.456Z,11.10
2018-04-11T01:53:59.442Z,11.10
2018-04-11T01:55:02.655Z,11.10
2018-04-11T01:56:05.871Z,11.10
2018-04-11T01:57:09.109Z,11.10
2018-04-11T01:58:13.158Z,11.00
2018-04-11T01:59:17.102Z,11.00
2018-04-11T02:00:21.160Z,11.00
2018-04-11T02:01:24.402Z,11.00
2018-04-11T02:02:27.591Z,11.00
2018-04-11T02:03:30.875Z,11.00
2018-04-11T02:04:34.091Z,11.10
2018-04-11T02:05:37.311Z,11.10
2018-04-11T02:06:40.540Z,11.20
2018-04-11T02:07:43.783Z,11.20
2018-04-11T02:08:47.768Z,11.20
2018-04-11T02:09:51.754Z,11.10
2018-04-11T02:10:54.983Z,11.10
2018-04-11T02:11:58.976Z,11.10
2018-04-11T02:13:02.260Z,11.10
2018-04-11T02:14:06.226Z,11.10
2018-04-11T02:15:09.456Z,11.10
2018-04-11T02:16:12.694Z,11.10
2018-04-11T02:17:15.920Z,11.10
2018-04-11T02:18:19.131Z,11.20
2018-04-11T02:19:22.350Z,11.30
2018-04-11T02:20:26.364Z,11.20
2018-04-11T02:21:30.343Z,11.10
2018-04-11T02:22:33.570Z,11.10
2018-04-11T02:23:36.798Z,11.10
2018-04-11T02:24:40.035Z,11.20
2018-04-11T02:25:43.251Z,11.20
2018-04-11T02:26:46.482Z,11.30
2018-04-11T02:27:51.293Z,11.20
2018-04-11T02:28:55.311Z,11.20
2018-04-11T02:29:58.539Z,11.20
2018-04-11T02:31:01.761Z,11.20
2018-04-11T02:32:05.813Z,11.20
2018-04-11T02:33:09.834Z,11.20
2018-04-11T02:34:13.096Z,11.20
2018-04-11T02:35:16.283Z,11.20
2018-04-11T02:36:19.537Z,11.10
2018-04-11T02:37:22.772Z,11.10
2018-04-11T02:38:26.105Z,11.20
2018-04-11T02:39:29.327Z,11.20
2018-04-11T02:40:32.553Z,11.20
2018-04-11T02:41:36.540Z,11.20
2018-04-11T02:42:40.522Z,11.20
2018-04-11T02:43:43.760Z,11.20
2018-04-11T02:44:47.074Z,11.30
2018-04-11T02:45:50.244Z,11.30
2018-04-11T02:46:53.453Z,11.30
2018-04-11T02:47:56.750Z,11.30
2018-04-11T02:49:00.072Z,11.40
2018-04-11T02:50:03.292Z,11.40
2018-04-11T02:51:06.516Z,11.30
2018-04-11T02:52:10.525Z,11.40
2018-04-11T02:53:14.551Z,11.40
2018-04-11T02:54:17.781Z,11.40
2018-04-11T02:55:21.778Z,11.40
2018-04-11T02:56:25.004Z,11.40
2018-04-11T02:57:28.242Z,11.40
2018-04-11T02:58:31.470Z,11.40
2018-04-11T02:59:34.703Z,11.40
2018-04-11T03:00:37.923Z,11.30
2018-04-11T03:01:41.903Z,11.10
2018-04-11T03:02:45.164Z,11.10
2018-04-11T03:03:48.367Z,11.10
2018-04-11T03:04:51.583Z,11.10
2018-04-11T03:05:54.811Z,11.10
2018-04-11T03:06:58.034Z,11.10
2018-04-11T03:08:02.046Z,11.10
2018-04-11T03:09:06.098Z,11.10
2018-04-11T03:10:09.324Z,11.10
2018-04-11T03:11:12.569Z,11.00
2018-04-11T03:12:15.792Z,11.00
2018-04-11T03:13:19.018Z,11.00
2018-04-11T03:14:22.229Z,11.00
2018-04-11T03:15:25.458Z,10.90
2018-04-11T03:16:28.713Z,11.00
2018-04-11T03:17:32.722Z,11.00
2018-04-11T03:18:36.700Z,10.90
2018-04-11T03:19:40.725Z,11.00
2018-04-11T03:20:43.947Z,11.00
2018-04-11T03:21:47.243Z,11.10
2018-04-11T03:22:50.472Z,11.10
2018-04-11T03:23:53.706Z,11.10
2018-04-11T03:24:56.937Z,11.10
2018-04-11T03:26:00.186Z,11.10
2018-04-11T03:27:03.409Z,11.20
2018-04-11T03:28:07.409Z,11.20
2018-04-11T03:29:10.657Z,11.20
2018-04-11T03:30:13.873Z,11.20
2018-04-11T03:31:17.088Z,11.20
2018-04-11T03:32:20.315Z,11.20
2018-04-11T03:33:24.321Z,11.30
2018-04-11T03:34:28.321Z,11.20
2018-04-11T03:35:32.318Z,11.10
2018-04-11T03:36:36.306Z,11.10
2018-04-11T03:37:39.536Z,11.10
2018-04-11T03:38:42.776Z,11.20
2018-04-11T03:39:46.012Z,11.20
2018-04-11T03:40:49.259Z,11.10
2018-04-11T03:41:53.126Z,11.10
2018-04-11T03:42:57.894Z,10.90
2018-04-11T03:44:01.111Z,10.90
2018-04-11T03:45:04.344Z,10.90
2018-04-11T03:46:08.343Z,10.90
2018-04-11T03:47:11.637Z,10.90
2018-04-11T03:48:14.861Z,10.90
2018-04-11T03:49:18.096Z,11.00
2018-04-11T03:50:22.088Z,10.90
2018-04-11T03:51:26.073Z,10.90
2018-04-11T03:52:29.302Z,10.90
2018-04-11T03:53:32.579Z,10.90
2018-04-11T03:54:35.847Z,10.90
2018-04-11T03:55:39.091Z,11.00
2018-04-11T03:56:42.283Z,11.00
2018-04-11T03:57:45.524Z,11.00
2018-04-11T03:58:48.746Z,11.00
2018-04-11T03:59:52.089Z,11.00
2018-04-11T04:00:55.289Z,11.00
2018-04-11T04:01:58.529Z,11.00
2018-04-11T04:03:02.550Z,10.90
2018-04-11T04:04:05.805Z,10.90
2018-04-11T04:05:09.810Z,10.70
2018-04-11T04:06:13.802Z,10.70
2018-04-11T04:07:17.813Z,10.60
2018-04-11T04:08:21.807Z,10.60
2018-04-11T04:09:25.783Z,10.50
2018-04-11T04:10:29.012Z,10.50
2018-04-11T04:11:32.232Z,10.50
2018-04-11T04:12:35.471Z,10.50
2018-04-11T04:13:51.205Z,10.50
2018-04-11T04:15:06.420Z,10.50
2018-04-11T04:16:21.621Z,10.50
2018-04-11T04:17:36.758Z,10.50
2018-04-11T04:18:51.955Z,10.50
2018-04-11T04:20:02.874Z,10.60
2018-04-11T04:21:06.114Z,10.60
2018-04-11T04:22:10.132Z,10.70
2018-04-11T04:23:14.120Z,10.80
2018-04-11T04:24:17.346Z,10.80
2018-04-11T04:25:20.578Z,10.80
2018-04-11T04:26:23.801Z,10.80
2018-04-11T04:27:27.017Z,10.70
2018-04-11T04:28:30.278Z,10.70
2018-04-11T04:29:33.501Z,10.70
2018-04-11T04:30:36.715Z,10.70
2018-04-11T04:31:40.718Z,10.70
2018-04-11T04:32:44.707Z,10.70
2018-04-11T04:35:00.202Z,10.70
2018-04-11T04:36:03.425Z,10.70
2018-04-11T04:37:06.677Z,10.70
2018-04-11T04:38:09.916Z,10.60
2018-04-11T04:39:13.135Z,10.70
2018-04-11T04:40:16.378Z,10.60
2018-04-11T04:41:21.131Z,10.60
2018-04-11T04:42:25.115Z,10.60
2018-04-11T04:43:29.186Z,10.60
2018-04-11T04:44:32.427Z,10.60
2018-04-11T04:45:35.657Z,10.60
2018-04-11T04:46:38.903Z,10.60
2018-04-11T04:47:42.127Z,10.60
2018-04-11T04:48:45.421Z,10.60
2018-04-11T04:49:48.646Z,10.70
2018-04-11T04:50:51.883Z,10.60
2018-04-11T04:51:55.126Z,10.60
2018-04-11T04:52:58.362Z,10.60
2018-04-11T04:54:01.605Z,10.60
2018-04-11T04:55:04.829Z,10.60
2018-04-11T04:56:08.817Z,10.70
2018-04-11T04:57:12.139Z,10.60
2018-04-11T04:58:15.411Z,10.70
2018-04-11T04:59:18.723Z,10.70
2018-04-11T05:00:22.096Z,10.70
2018-04-11T05:01:25.332Z,10.60
2018-04-11T05:02:28.590Z,10.60
2018-04-11T05:03:31.802Z,10.60
2018-04-11T05:04:35.144Z,10.70
2018-04-11T05:05:38.363Z,10.60
2018-04-11T05:06:41.681Z,10.60
2018-04-11T05:07:45.029Z,10.60
2018-04-11T05:08:48.232Z,10.60
2018-04-11T05:09:51.498Z,10.60
2018-04-11T05:10:54.686Z,10.60
2018-04-11T05:11:58.680Z,10.50
2018-04-11T05:13:01.906Z,10.50
2018-04-11T05:14:05.873Z,10.50
2018-04-11T05:15:09.135Z,10.50
2018-04-11T05:16:12.362Z,10.50
2018-04-11T05:17:16.388Z,10.50
2018-04-11T05:18:19.612Z,10.40
2018-04-11T05:19:22.844Z,10.50
2018-04-11T05:20:26.850Z,10.40
2018-04-11T05:21:30.088Z,10.50
2018-04-11T05:22:33.313Z,10.40
2018-04-11T05:23:36.528Z,10.40
2018-04-11T05:24:39.756Z,10.40
2018-04-11T05:25:43.728Z,10.40
2018-04-11T05:26:46.958Z,10.50
2018-04-11T05:27:50.179Z,10.40
2018-04-11T05:28:53.457Z,10.40
2018-04-11T05:29:56.724Z,10.40
2018-04-11T05:30:59.978Z,10.50
2018-04-11T05:32:04.001Z,10.50
2018-04-11T05:33:07.201Z,10.50
2018-04-11T05:34:10.431Z,10.50
2018-04-11T05:35:14.420Z,10.60
2018-04-11T05:36:17.637Z,10.60
2018-04-11T05:37:20.857Z,10.60
2018-04-11T05:38:24.194Z,10.60
2018-04-11T05:39:28.221Z,10.60
2018-04-11T05:40:31.467Z,10.60
2018-04-11T05:41:34.679Z,10.50
2018-04-11T05:42:37.930Z,10.50
2018-04-11T05:43:41.937Z,10.60
2018-04-11T05:44:45.931Z,10.70
2018-04-11T05:45:49.910Z,10.70
2018-04-11T05:46:53.134Z,10.70
2018-04-11T05:47:56.425Z,10.70
2018-04-11T05:48:59.595Z,10.70
2018-04-11T05:50:03.572Z,10.70
2018-04-11T05:51:07.562Z,10.70
2018-04-11T05:52:10.793Z,10.70
2018-04-11T05:53:13.997Z,10.70
2018-04-11T05:54:17.227Z,10.80
2018-04-11T05:55:21.237Z,10.90
2018-04-11T05:56:25.216Z,10.90
2018-04-11T05:57:28.505Z,10.90
2018-04-11T05:58:31.752Z,11.00
2018-04-11T05:59:35.007Z,11.00
2018-04-11T06:00:38.274Z,11.00
2018-04-11T06:01:41.510Z,11.00
2018-04-11T06:02:44.732Z,11.00
2018-04-11T06:03:48.773Z,11.10
2018-04-11T06:04:51.987Z,11.10
2018-04-11T06:05:55.300Z,11.10
2018-04-11T06:06:58.485Z,11.10
2018-04-11T06:08:02.497Z,11.00
2018-04-11T06:09:07.303Z,11.00
2018-04-11T06:10:11.293Z,11.00
2018-04-11T06:11:15.302Z,11.10
2018-04-11T06:12:19.314Z,11.10
2018-04-11T06:13:23.291Z,11.20
2018-04-11T06:14:26.524Z,11.20
2018-04-11T06:15:29.744Z,11.20
2018-04-11T06:16:32.972Z,11.20
2018-04-11T06:17:36.242Z,11.20
2018-04-11T06:18:40.214Z,11.20
2018-04-11T06:19:43.456Z,11.20
2018-04-11T06:20:46.677Z,11.20
2018-04-11T06:21:49.899Z,11.20
2018-04-11T06:22:53.255Z,11.20
2018-04-11T06:23:56.426Z,11.20
2018-04-11T06:24:59.627Z,11.20
2018-04-11T06:26:03.671Z,11.30
2018-04-11T06:27:06.893Z,11.30
2018-04-11T06:28:10.185Z,11.30
2018-04-11T06:29:13.358Z,11.30
2018-04-11T06:30:16.580Z,11.30
2018-04-11T06:31:19.936Z,11.30
2018-04-11T06:32:23.134Z,11.40
2018-04-11T06:33:27.127Z,11.40
2018-04-11T06:34:30.359Z,11.40
2018-04-11T06:35:33.570Z,11.40
2018-04-11T06:36:36.807Z,11.40
2018-04-11T06:37:40.030Z,11.40
2018-04-11T06:38:43.244Z,11.50
2018-04-11T06:39:47.261Z,11.60
2018-04-11T06:40:50.912Z,11.60
2018-04-11T06:41:54.144Z,11.70
2018-04-11T06:42:58.159Z,11.70
2018-04-11T06:44:01.399Z,11.70
2018-04-11T06:45:05.418Z,11.80
2018-04-11T06:46:09.406Z,11.90
2018-04-11T06:47:13.386Z,11.90
2018-04-11T06:48:16.622Z,11.90
2018-04-11T06:49:19.843Z,11.90
2018-04-11T06:50:23.111Z,11.90
2018-04-11T06:51:26.305Z,11.90
2018-04-11T06:52:29.515Z,11.90
2018-04-11T06:53:33.501Z,12.00
2018-04-11T06:54:36.810Z,12.00
2018-04-11T06:55:40.824Z,12.10
2018-04-11T06:56:44.807Z,12.10
2018-04-11T06:57:48.794Z,12.10
2018-04-11T06:58:52.010Z,12.10
2018-04-11T06:59:55.219Z,12.10
2018-04-11T07:00:58.432Z,12.00
2018-04-11T07:02:01.760Z,12.10
2018-04-11T07:03:04.994Z,12.20
2018-04-11T07:04:08.215Z,12.10
2018-04-11T07:05:12.203Z,12.10
2018-04-11T07:06:15.443Z,12.10
2018-04-11T07:07:18.700Z,12.10
2018-04-11T07:08:22.675Z,12.10
2018-04-11T07:09:25.883Z,12.10
2018-04-11T07:10:29.122Z,12.10
2018-04-11T07:11:33.115Z,12.10
2018-04-11T07:12:36.323Z,12.10
2018-04-11T07:13:40.309Z,12.20
2018-04-11T07:14:44.326Z,12.30
2018-04-11T07:15:48.311Z,12.20
2018-04-11T07:16:52.391Z,12.30
2018-04-11T07:17:55.587Z,12.20
2018-04-11T07:18:58.810Z,12.20
2018-04-11T07:20:02.036Z,12.30
2018-04-11T07:21:05.259Z,12.50
2018-04-11T07:22:08.484Z,12.50
2018-04-11T07:23:11.736Z,12.50
2018-04-11T07:24:14.955Z,12.60
2018-04-11T07:25:18.199Z,12.50
2018-04-11T07:26:21.435Z,12.50
2018-04-11T07:27:24.675Z,12.50
2018-04-11T07:28:27.886Z,12.50
2018-04-11T07:29:31.115Z,12.60
2018-04-11T07:30:35.084Z,12.60
2018-04-11T07:31:38.325Z,12.60
2018-04-11T07:32:41.550Z,12.70
2018-04-11T07:33:44.819Z,12.80
2018-04-11T07:34:48.046Z,12.80
2018-04-11T07:35:51.268Z,12.80
2018-04-11T07:36:54.493Z,12.90
2018-04-11T07:37:57.742Z,13.00
2018-04-11T07:39:00.994Z,12.90
2018-04-11T07:40:05.018Z,12.90
2018-04-11T07:41:08.994Z,13.00
2018-04-11T07:42:13.027Z,12.80
2018-04-11T07:43:16.267Z,12.80
2018-04-11T07:44:19.498Z,12.80
2018-04-11T07:45:22.742Z,12.80
2018-04-11T07:46:26.738Z,12.90
2018-04-11T07:47:31.109Z,12.90
2018-04-11T07:48:34.305Z,12.90
2018-04-11T07:49:37.628Z,12.90
2018-04-11T07:50:40.835Z,12.90
2018-04-11T07:51:44.065Z,12.90
2018-04-11T07:52:48.047Z,13.10
2018-04-11T07:53:51.264Z,13.00
2018-04-11T07:54:55.258Z,13.20
2018-04-11T07:55:59.250Z,13.30
2018-04-11T07:57:02.486Z,13.20
2018-04-11T07:58:05.717Z,13.20
2018-04-11T07:59:08.938Z,13.10
2018-04-11T08:00:12.143Z,13.20
2018-04-11T08:01:15.358Z,13.20
2018-04-11T08:02:18.607Z,13.30
2018-04-11T08:03:21.854Z,13.30
2018-04-11T08:04:25.023Z,13.30
2018-04-11T08:05:29.092Z,13.40
2018-04-11T08:06:32.312Z,13.40
2018-04-11T08:07:36.303Z,13.40
2018-04-11T08:08:40.283Z,13.30
2018-04-11T08:09:43.497Z,13.30
2018-04-11T08:10:47.500Z,13.40
2018-04-11T08:11:51.473Z,13.40
2018-04-11T08:12:55.562Z,13.50
2018-04-11T08:13:58.742Z,13.50
2018-04-11T08:15:01.948Z,13.50
2018-04-11T08:16:05.977Z,13.50
2018-04-11T08:17:09.195Z,13.60
2018-04-11T08:18:12.430Z,13.60
2018-04-11T08:19:15.664Z,13.60
2018-04-11T08:20:18.881Z,13.60
2018-04-11T08:21:22.914Z,13.70
2018-04-11T08:22:26.186Z,13.70
2018-04-11T08:23:29.695Z,13.70
2018-04-11T08:24:32.919Z,13.70
2018-04-11T08:25:36.135Z,13.70
2018-04-11T08:26:39.475Z,13.80
2018-04-11T08:27:42.676Z,13.90
2018-04-11T08:28:46.679Z,13.90
2018-04-11T08:29:50.730Z,13.90
2018-04-11T08:30:54.682Z,13.90
2018-04-11T08:31:58.780Z,13.90
2018-04-11T08:33:01.975Z,13.90
2018-04-11T08:34:05.970Z,13.90
2018-04-11T08:35:09.194Z,13.90
2018-04-11T08:36:12.428Z,14.00
2018-04-11T08:37:16.406Z,14.00
2018-04-11T08:38:19.639Z,14.00
2018-04-11T08:39:23.638Z,14.10
2018-04-11T08:40:27.618Z,14.20
2018-04-11T08:41:30.827Z,14.20
2018-04-11T08:42:34.168Z,14.30
2018-04-11T08:43:37.370Z,14.40
2018-04-11T08:44:42.098Z,14.50
2018-04-11T08:45:46.068Z,14.40
2018-04-11T08:46:49.291Z,14.40
2018-04-11T08:47:52.534Z,14.40
2018-04-11T08:48:55.733Z,14.50
2018-04-11T08:50:00.469Z,14.50
2018-04-11T08:51:04.543Z,14.50
2018-04-11T08:52:07.776Z,14.50
2018-04-11T08:53:10.978Z,14.50
2018-04-11T08:54:14.195Z,14.40
2018-04-11T08:55:18.199Z,14.50
2018-04-11T08:56:21.515Z,14.40
2018-04-11T08:57:25.488Z,14.50
2018-04-11T08:58:29.461Z,14.50
2018-04-11T08:59:32.683Z,14.50
2018-04-11T09:00:36.722Z,14.60
2018-04-11T09:01:39.921Z,14.60
2018-04-11T09:02:43.147Z,14.60
2018-04-11T09:03:46.388Z,14.60
2018-04-11T09:04:49.597Z,14.60
2018-04-11T09:05:53.580Z,14.60
2018-04-11T09:06:56.815Z,14.60
2018-04-11T09:08:00.019Z,14.60
2018-04-11T09:09:03.278Z,14.70
2018-04-11T09:10:07.326Z,14.80
2018-04-11T09:11:10.513Z,14.80
2018-04-11T09:12:13.835Z,14.90
2018-04-11T09:13:17.816Z,15.00
2018-04-11T09:14:21.843Z,15.10
2018-04-11T09:15:25.899Z,15.10
2018-04-11T09:16:29.126Z,15.10
2018-04-11T09:17:32.384Z,15.00
2018-04-11T09:18:35.592Z,15.00
2018-04-11T09:19:39.576Z,15.00
2018-04-11T09:20:42.836Z,15.00
2018-04-11T09:21:46.136Z,15.00
2018-04-11T09:22:50.863Z,15.10
2018-04-11T09:23:54.087Z,15.10
2018-04-11T09:24:57.343Z,15.10
2018-04-11T09:26:00.560Z,15.20
2018-04-11T09:27:03.790Z,15.20
2018-04-11T09:28:07.015Z,15.20
2018-04-11T09:29:10.240Z,15.20
2018-04-11T09:30:13.458Z,15.30
2018-04-11T09:31:16.693Z,15.30
2018-04-11T09:32:19.903Z,15.30
2018-04-11T09:33:23.174Z,15.40
2018-04-11T09:34:26.379Z,15.40
2018-04-11T09:35:30.363Z,15.30
2018-04-11T09:36:33.580Z,15.30
2018-04-11T09:37:36.886Z,15.30
2018-04-11T09:38:40.126Z,15.30
2018-04-11T09:39:43.315Z,15.30
2018-04-11T09:40:47.291Z,15.40
2018-04-11T09:41:50.573Z,15.40
2018-04-11T09:42:53.730Z,15.40
2018-04-11T09:43:56.955Z,15.40
2018-04-11T09:45:00.962Z,15.60
2018-04-11T09:46:04.953Z,15.50
2018-04-11T09:47:08.925Z,15.50
2018-04-11T09:48:12.115Z,15.50
2018-04-11T09:49:16.170Z,15.60
2018-04-11T09:50:19.456Z,15.50
2018-04-11T09:51:22.788Z,15.70
2018-04-11T09:52:25.987Z,15.80
2018-04-11T09:53:29.958Z,15.90
2018-04-11T09:54:33.300Z,15.90
2018-04-11T09:55:36.503Z,15.90
2018-04-11T09:56:39.715Z,15.90
2018-04-11T09:57:42.938Z,16.00
2018-04-11T09:58:46.140Z,16.10
2018-04-11T09:59:49.365Z,16.30
2018-04-11T10:00:53.386Z,16.40
2018-04-11T10:01:57.374Z,16.50
2018-04-11T10:03:07.438Z,16.50
2018-04-11T10:04:11.411Z,16.60
2018-04-11T10:05:14.630Z,16.60
2018-04-11T10:06:18.619Z,16.60
2018-04-11T10:07:22.644Z,16.70
2018-04-11T10:08:25.881Z,16.60
2018-04-11T10:09:29.243Z,16.70
2018-04-11T10:10:32.485Z,16.70
2018-04-11T10:11:35.722Z,16.70
2018-04-11T10:12:38.942Z,16.70
2018-04-11T10:13:42.949Z,16.80
2018-04-11T10:14:46.152Z,16.80
2018-04-11T10:15:49.369Z,16.70
2018-04-11T10:16:52.589Z,16.70
2018-04-11T10:17:56.570Z,16.70
2018-04-11T10:19:00.577Z,16.60
2018-04-11T10:20:03.881Z,16.60
2018-04-11T10:21:07.103Z,16.60
2018-04-11T10:22:10.312Z,16.70
2018-04-11T10:23:13.555Z,16.80
2018-04-11T10:24:16.780Z,16.80
2018-04-11T10:25:20.001Z,16.80
2018-04-11T10:26:23.247Z,16.80
2018-04-11T10:27:26.428Z,16.70
2018-04-11T10:28:29.688Z,16.60
2018-04-11T10:29:32.912Z,16.60
2018-04-11T10:30:36.921Z,16.50
2018-04-11T10:31:40.916Z,16.50
2018-04-11T10:32:44.949Z,16.60
2018-04-11T10:33:48.169Z,16.60
2018-04-11T10:34:51.399Z,16.70
2018-04-11T10:35:55.365Z,17.00
2018-04-11T10:36:58.607Z,16.90
2018-04-11T10:38:01.824Z,17.00
2018-04-11T10:39:05.043Z,17.00
2018-04-11T10:40:08.378Z,16.90
2018-04-11T10:41:11.594Z,16.90
2018-04-11T10:42:15.606Z,16.80
2018-04-11T10:43:18.779Z,16.80
2018-04-11T10:44:22.766Z,16.80
2018-04-11T10:45:26.824Z,16.80
2018-04-11T10:46:30.038Z,16.80
2018-04-11T10:47:33.257Z,16.80
2018-04-11T10:48:37.235Z,17.00
2018-04-11T10:49:41.266Z,17.10
2018-04-11T10:50:44.469Z,17.00
2018-04-11T10:51:47.717Z,17.10
2018-04-11T10:52:51.719Z,17.00
2018-04-11T10:53:54.910Z,17.00
2018-04-11T10:54:58.146Z,16.90
2018-04-11T10:56:01.379Z,16.90
2018-04-11T10:57:04.651Z,16.90
2018-04-11T10:58:08.639Z,16.80
2018-04-11T10:59:11.851Z,16.80
2018-04-11T11:00:15.323Z,16.70
2018-04-11T11:01:19.296Z,16.90
2018-04-11T11:02:22.627Z,16.90
2018-04-11T11:03:25.948Z,17.00
2018-04-11T11:04:29.135Z,17.00
2018-04-11T11:05:32.470Z,17.10
2018-04-11T11:06:35.676Z,17.00
2018-04-11T11:07:38.987Z,17.10
2018-04-11T11:08:43.013Z,17.00
2018-04-11T11:09:46.224Z,17.10
2018-04-11T11:10:49.444Z,16.90
2018-04-11T11:11:52.687Z,16.90
2018-04-11T11:12:55.910Z,16.90
2018-04-11T11:13:59.118Z,16.80
2018-04-11T11:15:02.351Z,16.80
2018-04-11T11:16:05.548Z,16.70
2018-04-11T11:17:08.762Z,16.70
2018-04-11T11:18:11.960Z,16.80
2018-04-11T11:19:15.957Z,16.90
2018-04-11T11:20:19.928Z,17.00
2018-04-11T11:21:23.195Z,17.00
2018-04-11T11:22:26.421Z,17.10
2018-04-11T11:23:30.383Z,17.30
2018-04-11T11:24:33.613Z,17.30
2018-04-11T11:25:37.585Z,17.60
2018-04-11T11:26:40.791Z,17.50
2018-04-11T11:27:44.771Z,17.60
2018-04-11T11:28:47.977Z,17.60
2018-04-11T11:29:51.977Z,17.70
2018-04-11T11:30:55.980Z,17.70
2018-04-11T11:31:59.945Z,17.70
2018-04-11T11:33:03.265Z,17.70
2018-04-11T11:34:07.257Z,17.80
2018-04-11T11:35:11.240Z,17.90
2018-04-11T11:36:14.460Z,17.90
2018-04-11T11:37:18.447Z,18.00
2018-04-11T11:38:22.438Z,18.10
2018-04-11T11:39:25.640Z,18.10
2018-04-11T11:40:28.869Z,18.10
2018-04-11T11:41:32.103Z,18.10
2018-04-11T11:42:36.087Z,17.90
2018-04-11T11:43:40.080Z,18.00
2018-04-11T11:44:43.388Z,18.00
2018-04-11T11:45:47.397Z,18.00
2018-04-11T11:46:51.371Z,18.00
2018-04-11T11:47:55.388Z,18.00
2018-04-11T11:48:59.369Z,18.10
2018-04-11T11:50:03.447Z,18.10
2018-04-11T11:51:06.625Z,18.10
2018-04-11T11:52:09.889Z,18.10
2018-04-11T11:53:13.805Z,18.10
2018-04-11T11:54:17.027Z,18.10
2018-04-11T11:55:20.254Z,18.20
2018-04-11T11:56:23.506Z,18.30
2018-04-11T11:57:27.499Z,18.30
2018-04-11T11:58:31.463Z,18.30
2018-04-11T11:59:36.177Z,18.30
2018-04-11T12:00:39.518Z,18.30
2018-04-11T12:01:42.775Z,18.30
2018-04-11T12:02:46.755Z,18.20
2018-04-11T12:03:50.079Z,18.20
2018-04-11T12:04:54.057Z,18.20
2018-04-11T12:05:57.280Z,18.20
2018-04-11T12:07:00.481Z,18.20
2018-04-11T12:08:03.711Z,18.20
2018-04-11T12:09:07.720Z,18.30
2018-04-11T12:10:11.709Z,18.30
2018-04-11T12:11:15.679Z,18.30
2018-04-11T12:12:18.917Z,18.20
2018-04-11T12:13:22.130Z,18.20
2018-04-11T12:14:25.355Z,18.20
2018-04-11T12:15:28.667Z,18.30
2018-04-11T12:16:31.874Z,18.40
2018-04-11T12:17:35.098Z,18.40
2018-04-11T12:18:38.402Z,18.50
2018-04-11T12:19:42.427Z,18.50
2018-04-11T12:20:45.678Z,18.50
2018-04-11T12:21:49.659Z,18.60
2018-04-11T12:22:52.873Z,18.60
2018-04-11T12:23:56.878Z,18.70
2018-04-11T12:25:00.159Z,18.70
2018-04-11T12:26:04.153Z,18.80
2018-04-11T12:27:08.137Z,18.90
2018-04-11T12:28:11.345Z,18.90
2018-04-11T12:29:14.565Z,19.00
2018-04-11T12:30:17.811Z,19.10
2018-04-11T12:31:21.783Z,19.20
2018-04-11T12:32:24.995Z,19.20
2018-04-11T12:33:28.280Z,19.10
2018-04-11T12:34:31.505Z,19.00
2018-04-11T12:35:34.792Z,19.10
2018-04-11T12:36:37.974Z,19.20
2018-04-11T12:37:41.186Z,19.40
2018-04-11T12:38:45.262Z,19.60
2018-04-11T12:39:48.475Z,19.60
2018-04-11T12:40:52.471Z,19.70
2018-04-11T12:41:56.442Z,19.90
2018-04-11T12:42:59.654Z,19.80
2018-04-11T12:44:02.859Z,19.90
2018-04-11T12:45:06.068Z,19.90
2018-04-11T12:46:09.298Z,20.10
2018-04-11T12:47:12.509Z,20.30
2018-04-11T12:48:15.779Z,20.30
2018-04-11T12:49:19.768Z,20.40
2018-04-11T12:50:23.766Z,20.40
2018-04-11T12:51:27.758Z,20.60
2018-04-11T12:52:30.967Z,20.60
2018-04-11T12:53:34.964Z,20.70
2018-04-11T12:54:38.956Z,20.80
2018-04-11T12:55:42.229Z,20.80
2018-04-11T12:56:45.393Z,20.90
2018-04-11T12:57:48.623Z,21.00
2018-04-11T12:58:52.598Z,21.00
2018-04-11T12:59:56.618Z,21.10
2018-04-11T13:00:59.997Z,21.10
2018-04-11T13:02:03.890Z,21.10
2018-04-11T13:03:07.864Z,21.30
2018-04-11T13:04:11.189Z,21.20
2018-04-11T13:05:15.183Z,21.30
2018-04-11T13:06:19.169Z,21.50
2018-04-11T13:07:22.370Z,21.50
2018-04-11T13:08:25.649Z,21.50
2018-04-11T13:09:29.640Z,21.50
2018-04-11T13:10:33.609Z,21.60
2018-04-11T13:11:36.840Z,21.60
2018-04-11T13:12:40.824Z,21.80
2018-04-11T13:13:44.816Z,22.00
2018-04-11T13:14:48.026Z,22.00
2018-04-11T13:15:51.992Z,21.90
2018-04-11T13:18:04.882Z,21.90
2018-04-11T13:19:08.181Z,22.00
2018-04-11T13:20:11.372Z,22.00
2018-04-11T13:21:14.592Z,22.00
2018-04-11T13:22:17.807Z,22.10
2018-04-11T13:23:21.083Z,22.10
2018-04-11T13:24:24.320Z,22.20
2018-04-11T13:25:27.571Z,22.20
2018-04-11T13:26:30.778Z,22.40
2018-04-11T13:27:33.999Z,22.50
2018-04-11T13:28:37.234Z,22.40
2018-04-11T13:29:40.444Z,22.30
2018-04-11T13:30:44.482Z,21.90
2018-04-11T13:31:47.695Z,21.90
2018-04-11T13:32:51.007Z,21.90
2018-04-11T13:33:54.995Z,21.70
2018-04-11T13:34:58.219Z,21.70
2018-04-11T13:36:01.475Z,21.60
2018-04-11T13:37:05.468Z,21.60
2018-04-11T13:38:09.850Z,21.50
2018-04-11T13:39:13.090Z,21.50
2018-04-11T13:40:16.312Z,21.60
2018-04-11T13:41:19.538Z,21.80